createdAt,value
2022-07-29T00:00:45.802Z,19.12
2022-07-29T00:03:07.701Z,19.13
2022-07-29T00:05:30.016Z,19.17
2022-07-29T00:07:51.988Z,19.15
2022-07-29T00:10:13.884Z,19.14
2022-07-29T00:12:35.688Z,19.15
2022-07-29T00:14:58.263Z,19.16
2022-07-29T00:17:20.076Z,19.15
2022-07-29T00:19:45.463Z,19.16
2022-07-29T00:22:07.495Z,19.14
2022-07-29T00:24:29.348Z,19.13
2022-07-29T00:26:51.155Z,19.12
2022-07-29T00:31:54.886Z,19.12
2022-07-29T00:34:35.710Z,19.14
2022-07-29T00:36:58.757Z,19.13
2022-07-29T00:39:20.548Z,19.10
2022-07-29T00:41:42.395Z,19.10
2022-07-29T00:44:04.342Z,19.10
2022-07-29T00:46:26.150Z,19.11
2022-07-29T00:48:48.052Z,19.12
2022-07-29T00:51:11.227Z,19.13
2022-07-29T00:53:33.209Z,19.18
2022-07-29T00:55:56.246Z,19.16
2022-07-29T00:58:18.242Z,19.12
2022-07-29T01:00:41.755Z,19.09
2022-07-29T01:03:03.761Z,19.07
2022-07-29T01:05:51.053Z,18.99
2022-07-29T01:08:14.534Z,18.84
2022-07-29T01:10:40.462Z,18.76
2022-07-29T01:13:03.028Z,18.68
2022-07-29T01:15:30.573Z,18.61
2022-07-29T01:18:04.290Z,18.55
2022-07-29T01:20:52.773Z,18.46
2022-07-29T01:24:11.600Z,18.36
2022-07-29T01:26:46.734Z,18.20
2022-07-29T01:29:31.014Z,18.02
2022-07-29T01:32:27.600Z,17.90
2022-07-29T01:35:26.015Z,17.86
2022-07-29T01:38:11.201Z,17.77
2022-07-29T01:40:50.473Z,17.64
2022-07-29T01:43:21.008Z,17.54
2022-07-29T01:45:47.755Z,17.45
2022-07-29T01:48:35.106Z,17.38
2022-07-29T01:51:13.312Z,17.31
2022-07-29T01:53:48.351Z,17.28
2022-07-29T01:56:14.461Z,17.19
2022-07-29T01:58:41.065Z,17.14
2022-07-29T02:01:05.931Z,17.09
2022-07-29T02:03:31.484Z,17.01
2022-07-29T02:05:56.660Z,16.96
2022-07-29T02:08:20.997Z,16.90
2022-07-29T02:10:45.482Z,16.82
2022-07-29T02:13:10.494Z,16.74
2022-07-29T02:15:36.542Z,16.69
2022-07-29T02:18:08.473Z,16.62
2022-07-29T02:20:33.062Z,16.56
2022-07-29T02:22:56.736Z,16.46
2022-07-29T02:25:21.728Z,16.31
2022-07-29T02:27:45.425Z,16.16
2022-07-29T02:30:09.217Z,16.06
2022-07-29T02:32:35.308Z,15.99
2022-07-29T02:34:59.879Z,15.96
2022-07-29T02:37:22.559Z,15.97
2022-07-29T02:39:47.926Z,15.99
2022-07-29T02:42:16.595Z,15.99
2022-07-29T02:44:38.726Z,15.98
2022-07-29T02:47:15.906Z,15.93
2022-07-29T02:50:05.431Z,15.87
2022-07-29T02:52:43.927Z,15.79
2022-07-29T02:55:17.806Z,15.77
2022-07-29T02:57:54.020Z,15.79
2022-07-29T03:00:18.314Z,15.77
2022-07-29T03:02:45.977Z,15.77
2022-07-29T03:05:12.162Z,15.74
2022-07-29T03:07:36.379Z,15.71
2022-07-29T03:10:00.027Z,15.75
2022-07-29T03:12:23.527Z,15.76
2022-07-29T03:14:47.186Z,15.80
2022-07-29T03:17:11.242Z,15.82
2022-07-29T03:19:35.214Z,15.84
2022-07-29T03:21:59.340Z,15.86
2022-07-29T03:24:31.286Z,15.85
2022-07-29T03:26:53.313Z,15.82
2022-07-29T03:29:15.093Z,15.82
2022-07-29T03:31:36.902Z,15.82
2022-07-29T03:33:59.360Z,15.83
2022-07-29T03:36:21.161Z,15.86
2022-07-29T03:38:46.967Z,15.89
2022-07-29T03:41:12.614Z,15.93
2022-07-29T03:43:40.042Z,15.94
2022-07-29T03:46:14.976Z,15.96
2022-07-29T03:48:43.524Z,15.99
2022-07-29T03:51:05.436Z,16.04
2022-07-29T03:53:30.182Z,16.10
2022-07-29T03:56:00.412Z,16.16
2022-07-29T03:58:24.249Z,16.19
2022-07-29T04:00:47.572Z,16.19
2022-07-29T04:03:11.903Z,16.20
2022-07-29T04:05:34.321Z,16.20
2022-07-29T04:07:56.509Z,16.21
2022-07-29T04:10:30.119Z,16.20
2022-07-29T04:12:53.701Z,16.19
2022-07-29T04:15:15.660Z,16.17
2022-07-29T04:17:37.912Z,16.15
2022-07-29T04:19:59.720Z,16.12
2022-07-29T04:22:21.536Z,16.07
2022-07-29T04:24:44.840Z,16.05
2022-07-29T04:27:06.672Z,16.06
2022-07-29T04:29:28.554Z,16.10
2022-07-29T04:31:50.651Z,16.13
2022-07-29T04:34:13.609Z,16.18
2022-07-29T04:36:36.025Z,16.22
2022-07-29T04:38:58.586Z,16.26
2022-07-29T04:41:20.835Z,16.29
2022-07-29T04:43:43.303Z,16.30
2022-07-29T04:46:07.597Z,16.27
2022-07-29T04:48:29.613Z,16.23
2022-07-29T04:50:51.570Z,16.18
2022-07-29T04:53:13.369Z,16.17
2022-07-29T04:55:35.310Z,16.17
2022-07-29T04:58:01.213Z,16.16
2022-07-29T05:00:29.211Z,16.11
2022-07-29T05:02:55.338Z,16.05
2022-07-29T05:05:17.395Z,16.02
2022-07-29T05:07:39.198Z,16.02
2022-07-29T05:10:01.196Z,16.05
2022-07-29T05:12:22.957Z,16.05
2022-07-29T05:14:44.824Z,16.03
2022-07-29T05:17:06.835Z,15.99
2022-07-29T05:19:28.586Z,15.96
2022-07-29T05:21:50.945Z,15.97
2022-07-29T05:24:12.953Z,15.99
2022-07-29T05:26:34.980Z,16.01
2022-07-29T05:28:57.984Z,16.00
2022-07-29T05:31:20.021Z,16.00
2022-07-29T05:33:42.902Z,15.98
2022-07-29T05:36:08.685Z,15.94
2022-07-29T05:38:30.469Z,15.94
2022-07-29T05:40:52.262Z,15.97
2022-07-29T05:43:14.051Z,16.05
2022-07-29T05:45:36.045Z,16.13
2022-07-29T05:48:11.865Z,16.20
2022-07-29T05:50:34.061Z,16.20
2022-07-29T05:52:55.881Z,16.15
2022-07-29T05:55:18.383Z,16.09
2022-07-29T05:57:40.807Z,16.07
2022-07-29T06:00:03.989Z,16.04
2022-07-29T06:02:34.225Z,16.00
2022-07-29T06:04:56.189Z,15.98
2022-07-29T06:07:18.101Z,15.97
2022-07-29T06:09:40.203Z,15.96
2022-07-29T06:12:02.368Z,15.95
2022-07-29T06:14:24.250Z,15.95
2022-07-29T06:16:46.272Z,15.99
2022-07-29T06:19:08.342Z,16.00
2022-07-29T06:21:31.631Z,16.03
2022-07-29T06:23:53.444Z,16.03
2022-07-29T06:26:15.330Z,16.03
2022-07-29T06:28:37.156Z,16.02
2022-07-29T06:30:59.398Z,16.01
2022-07-29T06:33:21.313Z,16.01
2022-07-29T06:35:53.139Z,16.03
2022-07-29T06:38:31.392Z,16.08
2022-07-29T06:41:02.836Z,16.11
2022-07-29T06:43:24.634Z,16.15
2022-07-29T06:45:48.330Z,16.15
2022-07-29T06:48:10.867Z,16.19
2022-07-29T06:50:32.774Z,16.21
2022-07-29T06:52:54.564Z,16.23
2022-07-29T06:55:24.710Z,16.26
2022-07-29T06:57:47.460Z,16.28
2022-07-29T07:00:14.437Z,16.29
2022-07-29T07:02:36.454Z,16.29
2022-07-29T07:04:58.328Z,16.29
2022-07-29T07:07:20.085Z,16.30
2022-07-29T07:09:42.883Z,16.35
2022-07-29T07:12:05.299Z,16.41
2022-07-29T07:14:28.374Z,16.43
2022-07-29T07:16:50.270Z,16.45
2022-07-29T07:19:14.601Z,16.46
2022-07-29T07:21:36.502Z,16.51
2022-07-29T07:24:00.620Z,16.56
2022-07-29T07:26:22.474Z,16.59
2022-07-29T07:28:44.379Z,16.58
2022-07-29T07:31:06.399Z,16.60
2022-07-29T07:33:28.441Z,16.58
2022-07-29T07:35:50.325Z,16.59
2022-07-29T07:38:12.350Z,16.63
2022-07-29T07:40:34.597Z,16.71
2022-07-29T07:42:56.481Z,16.78
2022-07-29T07:45:18.554Z,16.84
2022-07-29T07:47:40.516Z,16.85
2022-07-29T07:50:02.424Z,16.87
2022-07-29T07:52:24.333Z,16.89
2022-07-29T07:54:46.216Z,16.88
2022-07-29T07:57:08.096Z,16.98
2022-07-29T07:59:30.077Z,17.07
2022-07-29T08:01:56.175Z,17.18
2022-07-29T08:04:22.214Z,17.26
2022-07-29T08:06:50.792Z,17.31
2022-07-29T08:09:28.212Z,17.33
2022-07-29T08:11:52.487Z,17.30
2022-07-29T08:14:14.989Z,17.30
2022-07-29T08:16:37.014Z,17.33
2022-07-29T08:18:58.883Z,17.40
2022-07-29T08:21:20.762Z,17.51
2022-07-29T08:23:57.639Z,17.61
2022-07-29T08:26:23.614Z,17.63
2022-07-29T08:28:49.721Z,17.69
2022-07-29T08:31:11.606Z,17.75
2022-07-29T08:33:34.487Z,17.81
2022-07-29T08:35:56.412Z,17.86
2022-07-29T08:38:18.216Z,18.03
2022-07-29T08:40:40.638Z,18.29
2022-07-29T08:43:09.913Z,18.57
2022-07-29T08:45:48.093Z,18.81
2022-07-29T08:48:10.367Z,19.01
2022-07-29T08:50:32.391Z,19.17
2022-07-29T08:52:59.640Z,19.38
2022-07-29T08:55:21.996Z,19.62
2022-07-29T08:57:51.109Z,19.82
2022-07-29T09:00:18.457Z,20.03
2022-07-29T09:02:48.069Z,20.21
2022-07-29T09:05:11.461Z,20.24
2022-07-29T09:07:34.881Z,20.37
2022-07-29T09:09:57.354Z,20.50
2022-07-29T09:12:29.488Z,20.63
2022-07-29T09:14:52.290Z,20.83
2022-07-29T09:17:17.818Z,21.09
2022-07-29T09:19:39.768Z,21.22
2022-07-29T09:22:10.420Z,21.30
2022-07-29T09:24:46.342Z,21.38
2022-07-29T09:27:18.193Z,21.51
2022-07-29T09:29:40.573Z,21.59
2022-07-29T09:32:10.615Z,21.64
2022-07-29T09:34:32.947Z,21.70
2022-07-29T09:36:56.684Z,21.87
2022-07-29T09:39:39.775Z,22.04
2022-07-29T09:42:06.044Z,22.19
2022-07-29T09:44:28.004Z,22.35
2022-07-29T09:47:09.379Z,22.36
2022-07-29T09:49:31.352Z,22.44
2022-07-29T09:52:12.151Z,22.59
2022-07-29T09:54:43.230Z,22.65
2022-07-29T09:57:31.106Z,22.71
2022-07-29T10:00:19.764Z,22.71
2022-07-29T10:03:03.451Z,22.72
2022-07-29T10:05:36.031Z,22.82
2022-07-29T10:07:59.119Z,22.92
2022-07-29T10:10:34.847Z,23.06
2022-07-29T10:13:04.595Z,23.13
2022-07-29T10:15:38.070Z,23.22
2022-07-29T10:18:01.054Z,23.26
2022-07-29T10:20:24.655Z,23.28
2022-07-29T10:22:53.687Z,23.31
2022-07-29T10:25:18.979Z,23.45
2022-07-29T10:27:41.516Z,23.55
2022-07-29T10:30:05.591Z,23.57
2022-07-29T10:33:24.074Z,23.69
2022-07-29T10:36:07.667Z,23.89
2022-07-29T10:38:45.980Z,24.06
2022-07-29T10:41:44.424Z,24.05
2022-07-29T10:44:17.345Z,24.00
2022-07-29T10:46:42.813Z,24.06
2022-07-29T10:49:31.127Z,24.13
2022-07-29T10:52:10.706Z,24.23
2022-07-29T10:54:54.665Z,24.41
2022-07-29T10:57:54.634Z,24.50
2022-07-29T11:00:16.842Z,24.59
2022-07-29T11:02:45.240Z,24.72
2022-07-29T11:05:18.793Z,24.84
2022-07-29T11:08:21.098Z,24.91
2022-07-29T11:10:54.336Z,25.03
2022-07-29T11:13:57.986Z,25.16
2022-07-29T11:16:25.012Z,25.30
2022-07-29T11:19:13.425Z,25.47
2022-07-29T11:22:05.382Z,25.55
2022-07-29T11:24:32.161Z,25.67
2022-07-29T11:27:18.061Z,25.76
2022-07-29T11:30:03.303Z,25.85
2022-07-29T11:32:36.056Z,25.98
2022-07-29T11:35:38.534Z,26.11
2022-07-29T11:38:31.985Z,26.23
2022-07-29T11:41:25.531Z,26.28
2022-07-29T11:46:53.963Z,26.29
2022-07-29T11:49:31.704Z,26.25
2022-07-29T11:51:58.229Z,26.24
2022-07-29T11:54:27.965Z,26.34
2022-07-29T11:56:51.198Z,26.46
2022-07-29T11:59:15.879Z,26.50
2022-07-29T12:01:38.221Z,26.46
2022-07-29T12:04:06.882Z,26.41
2022-07-29T12:06:28.897Z,26.46
2022-07-29T12:08:51.158Z,26.57
2022-07-29T12:11:22.688Z,26.67
2022-07-29T12:13:45.139Z,26.73
2022-07-29T12:16:07.154Z,26.67
2022-07-29T12:18:29.265Z,26.61
2022-07-29T12:21:03.661Z,26.64
2022-07-29T12:23:25.829Z,26.70
2022-07-29T12:25:51.500Z,26.74
2022-07-29T12:28:27.369Z,26.79
2022-07-29T12:30:52.022Z,26.89
2022-07-29T12:33:30.574Z,26.99
2022-07-29T12:36:10.344Z,27.02
2022-07-29T12:38:36.011Z,27.06
2022-07-29T12:40:58.557Z,27.04
2022-07-29T12:43:26.166Z,27.18
2022-07-29T12:45:58.311Z,27.38
2022-07-29T12:48:40.209Z,27.52
2022-07-29T12:51:04.733Z,27.51
2022-07-29T12:53:27.615Z,27.48
2022-07-29T12:55:52.646Z,27.41
2022-07-29T12:58:14.741Z,27.42
2022-07-29T13:00:36.994Z,27.56
2022-07-29T13:03:01.966Z,27.59
2022-07-29T13:05:25.146Z,27.59
2022-07-29T13:07:55.602Z,27.60
2022-07-29T13:10:24.352Z,27.73
2022-07-29T13:13:11.208Z,27.86
2022-07-29T13:15:34.519Z,27.94
2022-07-29T13:17:56.627Z,28.05
2022-07-29T13:20:18.522Z,28.13
2022-07-29T13:22:48.274Z,28.18
2022-07-29T13:25:10.940Z,28.33
2022-07-29T13:27:37.396Z,28.37
2022-07-29T13:30:01.750Z,28.32
2022-07-29T13:32:28.707Z,28.33
2022-07-29T13:34:50.914Z,28.34
2022-07-29T13:37:12.856Z,28.36
2022-07-29T13:39:34.775Z,28.29
2022-07-29T13:41:57.477Z,28.27
2022-07-29T13:44:19.624Z,28.24
2022-07-29T13:46:41.640Z,28.19
2022-07-29T13:49:03.501Z,28.11
2022-07-29T13:51:25.347Z,28.05
2022-07-29T13:53:47.167Z,27.95
2022-07-29T13:56:09.050Z,27.90
2022-07-29T13:58:30.822Z,28.01
2022-07-29T14:00:52.724Z,28.13
2022-07-29T14:03:14.757Z,28.22
2022-07-29T14:05:36.603Z,28.28
2022-07-29T14:07:58.466Z,28.21
2022-07-29T14:10:20.456Z,28.12
2022-07-29T14:12:43.095Z,28.16
2022-07-29T14:15:05.705Z,28.22
2022-07-29T14:17:28.013Z,28.31
2022-07-29T14:19:49.930Z,28.37
2022-07-29T14:22:11.973Z,28.38
2022-07-29T14:24:34.018Z,28.32
2022-07-29T14:27:00.007Z,28.29
2022-07-29T14:29:22.181Z,28.30
2022-07-29T14:31:44.820Z,28.21
2022-07-29T14:34:06.709Z,28.21
2022-07-29T14:36:28.534Z,28.18
2022-07-29T14:38:50.778Z,28.26
2022-07-29T14:41:12.837Z,28.34
2022-07-29T14:43:35.920Z,28.38
2022-07-29T14:46:02.900Z,28.38
2022-07-29T14:48:27.185Z,28.28
2022-07-29T14:50:49.175Z,28.11
2022-07-29T14:53:12.965Z,28.16
2022-07-29T14:55:35.078Z,27.93
2022-07-29T14:58:07.795Z,27.93
2022-07-29T15:00:33.346Z,27.94
2022-07-29T15:03:03.071Z,28.03
2022-07-29T15:05:25.311Z,28.16
2022-07-29T15:07:47.368Z,28.26
2022-07-29T15:10:09.198Z,28.26
2022-07-29T15:12:32.337Z,28.21
2022-07-29T15:14:54.315Z,28.19
2022-07-29T15:17:16.215Z,28.18
2022-07-29T15:19:38.067Z,28.22
2022-07-29T15:22:00.306Z,28.27
2022-07-29T15:24:23.126Z,28.38
2022-07-29T15:26:45.161Z,28.45
2022-07-29T15:29:07.012Z,28.47
2022-07-29T15:31:28.978Z,28.36
2022-07-29T15:33:54.415Z,28.31
2022-07-29T15:36:50.181Z,28.26
2022-07-29T15:39:01.105Z,28.15
2022-07-29T15:41:23.076Z,27.88
2022-07-29T15:43:47.760Z,27.61
2022-07-29T15:46:28.392Z,27.37
2022-07-29T15:48:50.286Z,27.48
2022-07-29T15:51:13.098Z,27.62
2022-07-29T15:53:35.302Z,27.80
2022-07-29T15:55:57.362Z,27.82
2022-07-29T15:58:19.213Z,27.66
2022-07-29T16:00:41.070Z,27.72
2022-07-29T16:03:03.100Z,27.72
2022-07-29T16:05:25.141Z,27.54
2022-07-29T16:07:47.043Z,27.27
2022-07-29T16:10:09.144Z,27.09
2022-07-29T16:12:31.090Z,27.02
2022-07-29T16:14:53.063Z,26.95
2022-07-29T16:17:17.234Z,26.84
2022-07-29T16:19:39.336Z,26.76
2022-07-29T16:22:01.162Z,26.86
2022-07-29T16:24:23.996Z,26.95
2022-07-29T16:26:45.900Z,26.86
2022-07-29T16:29:07.716Z,26.76
2022-07-29T16:31:29.795Z,26.66
2022-07-29T16:33:55.415Z,26.55
2022-07-29T16:36:18.812Z,26.48
2022-07-29T16:38:47.024Z,26.40
2022-07-29T16:41:09.396Z,26.31
2022-07-29T16:43:31.269Z,26.18
2022-07-29T16:45:53.295Z,26.10
2022-07-29T16:48:17.334Z,26.06
2022-07-29T16:50:40.613Z,26.03
2022-07-29T16:53:02.390Z,25.99
2022-07-29T16:55:25.018Z,25.95
2022-07-29T16:57:47.611Z,25.89
2022-07-29T17:00:10.689Z,25.85
2022-07-29T17:02:32.791Z,25.80
2022-07-29T17:04:54.751Z,25.76
2022-07-29T17:07:17.304Z,25.78
2022-07-29T17:09:39.295Z,25.80
2022-07-29T17:12:01.404Z,25.88
2022-07-29T17:14:26.313Z,26.10
2022-07-29T17:16:55.018Z,26.32
2022-07-29T17:19:23.019Z,26.51
2022-07-29T17:21:46.777Z,26.65
2022-07-29T17:24:11.132Z,26.73
2022-07-29T17:26:33.188Z,26.79
2022-07-29T17:28:55.646Z,26.80
2022-07-29T17:31:17.847Z,26.79
2022-07-29T17:33:39.779Z,26.77
2022-07-29T17:36:20.524Z,26.74
2022-07-29T17:38:42.414Z,26.69
2022-07-29T17:41:07.817Z,26.63
2022-07-29T17:43:31.501Z,26.59
2022-07-29T17:45:55.872Z,26.58
2022-07-29T17:48:21.320Z,26.51
2022-07-29T17:50:43.278Z,26.48
2022-07-29T17:53:15.656Z,26.49
2022-07-29T17:55:39.479Z,26.50
2022-07-29T17:58:01.276Z,26.55
2022-07-29T18:00:24.777Z,26.65
2022-07-29T18:02:46.705Z,26.71
2022-07-29T18:05:08.802Z,26.70
2022-07-29T18:07:30.664Z,26.77
2022-07-29T18:09:53.296Z,26.84
2022-07-29T18:12:17.188Z,26.93
2022-07-29T18:14:39.205Z,27.00
2022-07-29T18:17:01.404Z,27.11
2022-07-29T18:19:23.460Z,27.23
2022-07-29T18:21:54.103Z,27.35
2022-07-29T18:24:17.206Z,27.43
2022-07-29T18:26:39.044Z,27.46
2022-07-29T18:29:00.838Z,27.50
2022-07-29T18:31:23.565Z,27.61
2022-07-29T18:33:45.386Z,27.71
2022-07-29T18:36:11.668Z,27.75
2022-07-29T18:38:34.368Z,27.73
2022-07-29T18:40:56.765Z,27.59
2022-07-29T18:43:18.537Z,27.32
2022-07-29T18:45:42.544Z,27.01
2022-07-29T18:48:05.341Z,26.67
2022-07-29T18:50:29.818Z,26.39
2022-07-29T18:52:52.390Z,26.11
2022-07-29T18:55:14.373Z,25.84
2022-07-29T18:57:54.393Z,25.62
2022-07-29T19:00:18.710Z,25.39
2022-07-29T19:02:40.649Z,25.19
2022-07-29T19:05:07.216Z,25.01
2022-07-29T19:07:29.969Z,24.87
2022-07-29T19:09:53.175Z,24.75
2022-07-29T19:12:15.003Z,24.65
2022-07-29T19:14:36.917Z,24.54
2022-07-29T19:16:59.258Z,24.43
2022-07-29T19:19:21.320Z,24.34
2022-07-29T19:21:43.567Z,24.24
2022-07-29T19:24:11.014Z,24.13
2022-07-29T19:26:36.709Z,24.02
2022-07-29T19:28:58.803Z,23.90
2022-07-29T19:31:20.680Z,23.78
2022-07-29T19:33:42.907Z,23.68
2022-07-29T19:36:05.012Z,23.59
2022-07-29T19:38:26.817Z,23.52
2022-07-29T19:40:48.759Z,23.42
2022-07-29T19:43:51.112Z,23.35
2022-07-29T19:45:52.711Z,23.29
2022-07-29T19:48:14.645Z,23.25
2022-07-29T19:50:36.905Z,23.20
2022-07-29T19:53:00.448Z,23.15
2022-07-29T19:55:23.611Z,23.11
2022-07-29T19:57:46.486Z,23.05
2022-07-29T20:00:13.641Z,23.01
2022-07-29T20:02:35.808Z,22.93
2022-07-29T20:04:57.697Z,22.82
2022-07-29T20:07:20.579Z,22.73
2022-07-29T20:09:42.667Z,22.64
2022-07-29T20:12:06.561Z,22.58
2022-07-29T20:14:28.395Z,22.54
2022-07-29T20:16:51.242Z,22.47
2022-07-29T20:19:13.601Z,22.38
2022-07-29T20:21:36.442Z,22.31
2022-07-29T20:24:00.433Z,22.26
2022-07-29T20:26:22.379Z,22.20
2022-07-29T20:28:48.928Z,22.14
2022-07-29T20:31:11.802Z,22.09
2022-07-29T20:33:33.747Z,22.01
2022-07-29T20:35:55.569Z,21.96
2022-07-29T20:38:18.484Z,21.91
2022-07-29T20:40:40.442Z,21.85
2022-07-29T20:43:02.412Z,21.79
2022-07-29T20:45:24.735Z,21.74
2022-07-29T20:47:46.648Z,21.70
2022-07-29T20:50:10.114Z,21.65
2022-07-29T20:52:32.034Z,21.59
2022-07-29T20:54:53.941Z,21.56
2022-07-29T20:57:15.792Z,21.52
2022-07-29T20:59:38.608Z,21.49
2022-07-29T21:02:02.765Z,21.46
2022-07-29T21:04:30.512Z,21.42
2022-07-29T21:06:53.311Z,21.35
2022-07-29T21:09:15.145Z,21.30
2022-07-29T21:11:44.396Z,21.28
2022-07-29T21:14:07.093Z,21.22
2022-07-29T21:16:33.329Z,21.17
2022-07-29T21:18:55.130Z,21.12
2022-07-29T21:21:16.983Z,21.08
2022-07-29T21:23:40.099Z,21.07
2022-07-29T21:26:02.581Z,21.05
2022-07-29T21:28:27.146Z,21.01
2022-07-29T21:30:49.003Z,20.99
2022-07-29T21:33:10.983Z,20.94
2022-07-29T21:36:06.577Z,20.91
2022-07-29T21:38:16.459Z,20.88
2022-07-29T21:40:38.687Z,20.83
2022-07-29T21:43:00.730Z,20.81
2022-07-29T21:45:22.543Z,20.78
2022-07-29T21:47:44.370Z,20.76
2022-07-29T21:50:06.840Z,20.74
2022-07-29T21:52:31.833Z,20.71
2022-07-29T21:54:53.884Z,20.68
2022-07-29T21:57:16.226Z,20.62
2022-07-29T21:59:38.206Z,20.57
2022-07-29T22:02:02.791Z,20.53
2022-07-29T22:04:24.620Z,20.48
2022-07-29T22:06:46.476Z,20.44
2022-07-29T22:09:08.372Z,20.41
2022-07-29T22:11:30.521Z,20.40
2022-07-29T22:13:52.508Z,20.37
2022-07-29T22:16:15.032Z,20.33
2022-07-29T22:18:36.968Z,20.27
2022-07-29T22:20:58.808Z,20.23
2022-07-29T22:23:20.740Z,20.17
2022-07-29T22:25:42.589Z,20.13
2022-07-29T22:28:04.664Z,20.08
2022-07-29T22:30:26.737Z,20.06
2022-07-29T22:32:49.682Z,20.03
2022-07-29T22:35:11.853Z,20.01
2022-07-29T22:37:33.977Z,20.00
2022-07-29T22:39:56.163Z,19.99
2022-07-29T22:42:18.071Z,19.97
2022-07-29T22:44:39.861Z,19.95
2022-07-29T22:47:02.044Z,19.96
2022-07-29T22:49:24.078Z,19.94
2022-07-29T22:51:45.991Z,19.94
2022-07-29T22:54:07.860Z,19.91
2022-07-29T22:56:29.818Z,19.89
2022-07-29T22:58:51.874Z,19.85
2022-07-29T23:01:14.346Z,19.81
2022-07-29T23:03:36.497Z,19.77
2022-07-29T23:05:58.347Z,19.75
2022-07-29T23:08:20.821Z,19.71
2022-07-29T23:10:42.613Z,19.69
2022-07-29T23:13:04.485Z,19.64
2022-07-29T23:15:26.310Z,19.52
2022-07-29T23:17:48.123Z,19.40
2022-07-29T23:20:10.548Z,19.31
2022-07-29T23:22:32.363Z,19.23
2022-07-29T23:24:54.258Z,19.17
2022-07-29T23:27:16.153Z,19.13
2022-07-29T23:29:38.033Z,19.08
2022-07-29T23:31:59.852Z,19.02
2022-07-29T23:34:21.613Z,18.96
2022-07-29T23:36:43.883Z,18.89
2022-07-29T23:39:11.035Z,18.84
2022-07-29T23:41:32.929Z,18.80
2022-07-29T23:43:54.693Z,18.76
2022-07-29T23:46:16.625Z,18.72
2022-07-29T23:48:45.738Z,18.69
2022-07-29T23:51:07.633Z,18.67
2022-07-29T23:53:29.467Z,18.63
2022-07-29T23:55:51.287Z,18.58
2022-07-29T23:58:13.035Z,18.54
